createdAt,value
2018-12-11T00:01:06.749Z,3.07
2018-12-11T00:03:38.479Z,2.30
2018-12-11T00:06:11.522Z,3.20
2018-12-11T00:09:01.441Z,3.90
2018-12-11T00:11:34.111Z,2.00
2018-12-11T00:14:06.313Z,3.33
2018-12-11T00:16:38.627Z,2.57
2018-12-11T00:19:10.658Z,3.00
2018-12-11T00:21:42.969Z,2.77
2018-12-11T00:24:15.193Z,3.30
2018-12-11T00:26:47.384Z,3.27
2018-12-11T00:29:19.533Z,2.93
2018-12-11T00:31:51.864Z,3.20
2018-12-11T00:34:24.434Z,3.40
2018-12-11T00:36:58.935Z,3.27
2018-12-11T00:39:30.636Z,3.70
2018-12-11T00:42:03.004Z,2.30
2018-12-11T00:44:35.065Z,3.10
2018-12-11T00:47:07.285Z,2.97
2018-12-11T00:49:39.400Z,2.67
2018-12-11T00:52:09.701Z,3.00
2018-12-11T00:54:46.227Z,3.20
2018-12-11T00:57:18.951Z,3.10
2018-12-11T00:59:50.850Z,2.63
2018-12-11T01:02:23.349Z,2.80
2018-12-11T01:04:55.589Z,2.53
2018-12-11T01:07:27.824Z,3.03
2018-12-11T01:09:59.953Z,2.50
2018-12-11T01:12:32.103Z,2.77
2018-12-11T01:15:07.079Z,2.90
2018-12-11T01:17:39.584Z,3.17
2018-12-11T01:20:13.950Z,2.70
2018-12-11T01:22:45.675Z,2.50
2018-12-11T01:25:30.240Z,2.90
2018-12-11T01:28:02.104Z,2.70
2018-12-11T01:30:34.199Z,2.77
2018-12-11T01:33:06.577Z,2.43
2018-12-11T01:35:38.384Z,1.93
2018-12-11T01:38:12.786Z,2.87
2018-12-11T01:40:44.527Z,2.93
2018-12-11T01:43:16.709Z,2.10
2018-12-11T01:45:48.720Z,2.60
2018-12-11T01:48:20.855Z,2.90
2018-12-11T01:53:21.740Z,2.50
2018-12-11T01:55:53.784Z,2.70
2018-12-11T01:58:26.135Z,3.07
2018-12-11T02:00:58.652Z,3.30
2018-12-11T02:03:32.048Z,3.13
2018-12-11T02:06:03.965Z,3.30
2018-12-11T02:08:36.034Z,2.40
2018-12-11T02:11:08.498Z,2.60
2018-12-11T02:13:41.066Z,3.03
2018-12-11T02:16:13.040Z,2.70
2018-12-11T02:18:45.103Z,3.27
2018-12-11T02:21:17.233Z,2.80
2018-12-11T02:23:47.460Z,2.90
2018-12-11T02:26:19.803Z,3.60
2018-12-11T02:28:54.304Z,2.80
2018-12-11T02:31:26.129Z,2.23
2018-12-11T02:33:56.499Z,2.30
2018-12-11T02:36:26.895Z,2.90
2018-12-11T02:38:59.393Z,2.97
2018-12-11T02:45:13.176Z,3.93
2018-12-11T02:47:43.327Z,2.97
2018-12-11T02:50:15.675Z,3.47
2018-12-11T02:52:48.019Z,2.77
2018-12-11T02:55:21.780Z,3.00
2018-12-11T02:57:53.954Z,2.87
2018-12-11T03:00:26.416Z,3.40
2018-12-11T03:02:58.632Z,3.10
2018-12-11T03:05:28.821Z,3.90
2018-12-11T03:08:01.120Z,3.43
2018-12-11T03:10:33.317Z,2.83
2018-12-11T03:13:05.806Z,2.73
2018-12-11T03:15:37.798Z,2.73
2018-12-11T03:18:08.242Z,3.40
2018-12-11T03:20:41.603Z,2.90
2018-12-11T03:23:13.659Z,2.90
2018-12-11T03:25:44.053Z,3.03
2018-12-11T03:28:16.334Z,3.20
2018-12-11T03:30:48.452Z,3.30
2018-12-11T03:33:20.699Z,2.83
2018-12-11T03:35:52.704Z,3.33
2018-12-11T03:38:24.747Z,2.90
2018-12-11T03:40:57.492Z,2.93
2018-12-11T03:43:31.440Z,3.23
2018-12-11T03:46:03.259Z,3.50
2018-12-11T03:48:35.430Z,3.10
2018-12-11T03:51:08.044Z,3.47
2018-12-11T03:53:38.070Z,4.03
2018-12-11T03:56:12.595Z,2.90
2018-12-11T04:01:38.100Z,3.10
2018-12-11T04:04:09.832Z,3.27
2018-12-11T04:06:42.342Z,3.40
2018-12-11T04:09:14.181Z,2.83
2018-12-11T04:11:46.592Z,4.00
2018-12-11T04:14:19.533Z,3.30
2018-12-11T04:16:51.605Z,3.10
2018-12-11T04:19:25.652Z,2.70
2018-12-11T04:21:57.346Z,3.43
2018-12-11T04:24:29.975Z,4.13
2018-12-11T04:27:01.675Z,3.57
2018-12-11T04:29:34.121Z,3.53
2018-12-11T04:32:06.288Z,3.03
2018-12-11T04:34:38.576Z,3.67
2018-12-11T04:37:10.683Z,3.17
2018-12-11T04:39:41.732Z,3.93
2018-12-11T04:42:14.923Z,2.97
2018-12-11T04:44:49.923Z,3.53
2018-12-11T04:47:22.633Z,3.23
2018-12-11T04:49:56.170Z,2.50
2018-12-11T04:52:29.576Z,2.73
2018-12-11T04:55:02.488Z,3.50
2018-12-11T04:57:34.812Z,2.87
2018-12-11T05:00:09.079Z,3.40
2018-12-11T05:02:41.335Z,4.07
2018-12-11T05:05:15.611Z,3.10
2018-12-11T05:07:48.129Z,3.23
2018-12-11T05:10:19.868Z,3.17
2018-12-11T05:12:52.703Z,2.83
2018-12-11T05:18:14.999Z,3.20
2018-12-11T05:20:46.884Z,4.07
2018-12-11T05:23:19.412Z,3.50
2018-12-11T05:25:51.808Z,2.53
2018-12-11T05:28:24.183Z,3.07
2018-12-11T05:30:58.026Z,2.97
2018-12-11T05:33:30.480Z,3.90
2018-12-11T05:36:03.614Z,2.77
2018-12-11T05:38:35.669Z,2.63
2018-12-11T05:41:07.425Z,3.20
2018-12-11T05:43:40.005Z,3.00
2018-12-11T05:46:14.475Z,3.03
2018-12-11T05:48:46.114Z,3.80
2018-12-11T05:51:18.376Z,2.93
2018-12-11T05:53:50.908Z,2.33
2018-12-11T05:56:22.886Z,2.57
2018-12-11T05:58:55.837Z,2.40
2018-12-11T06:01:27.443Z,3.07
2018-12-11T06:03:59.338Z,2.60
2018-12-11T06:06:31.705Z,3.07
2018-12-11T06:09:04.965Z,2.83
2018-12-11T06:11:36.943Z,3.30
2018-12-11T06:14:08.943Z,2.33
2018-12-11T06:16:42.126Z,2.63
2018-12-11T06:19:12.275Z,2.70
2018-12-11T06:21:44.728Z,2.57
2018-12-11T06:24:19.017Z,2.57
2018-12-11T06:26:50.788Z,2.70
2018-12-11T06:29:25.378Z,3.07
2018-12-11T06:31:58.139Z,2.73
2018-12-11T06:34:28.401Z,2.40
2018-12-11T06:37:00.690Z,2.90
2018-12-11T06:39:33.178Z,2.50
2018-12-11T06:42:05.167Z,3.00
2018-12-11T06:44:37.206Z,2.43
2018-12-11T06:47:09.534Z,2.90
2018-12-11T06:49:41.459Z,3.10
2018-12-11T06:52:13.626Z,3.37
2018-12-11T06:54:45.639Z,2.37
2018-12-11T06:57:18.067Z,1.70
2018-12-11T06:59:49.994Z,3.20
2018-12-11T07:02:22.805Z,2.60
2018-12-11T07:04:53.338Z,2.43
2018-12-11T07:07:25.608Z,3.23
2018-12-11T07:09:57.683Z,2.80
2018-12-11T07:12:29.790Z,2.40
2018-12-11T07:15:03.668Z,3.33
2018-12-11T07:17:37.264Z,2.60
2018-12-11T07:20:09.376Z,3.53
2018-12-11T07:22:39.600Z,2.67
2018-12-11T07:25:11.667Z,2.97
2018-12-11T07:27:44.508Z,3.37
2018-12-11T07:30:17.421Z,3.53
2018-12-11T07:32:49.460Z,3.83
2018-12-11T07:35:19.817Z,3.03
2018-12-11T07:37:52.250Z,3.60
2018-12-11T07:40:24.317Z,23.43
2018-12-11T07:42:56.704Z,11.23
2018-12-11T07:45:28.428Z,2.63
2018-12-11T07:47:58.868Z,3.70
2018-12-11T07:50:30.887Z,12.87
2018-12-11T07:53:06.464Z,5.07
2018-12-11T07:55:37.899Z,2.57
2018-12-11T07:58:10.429Z,3.00
2018-12-11T08:00:42.725Z,3.17
2018-12-11T08:03:15.524Z,3.60
2018-12-11T08:05:49.669Z,2.83
2018-12-11T08:08:21.599Z,3.20
2018-12-11T08:10:55.884Z,3.43
2018-12-11T08:13:28.259Z,4.23
2018-12-11T08:16:00.906Z,2.97
2018-12-11T08:18:33.110Z,3.20
2018-12-11T08:21:04.747Z,2.70
2018-12-11T08:23:37.649Z,4.17
2018-12-11T08:26:10.179Z,8.57
2018-12-11T08:28:44.566Z,5.27
2018-12-11T08:31:18.367Z,3.37
2018-12-11T08:33:50.363Z,3.60
2018-12-11T08:36:22.356Z,2.73
2018-12-11T08:38:54.295Z,3.03
2018-12-11T08:41:26.664Z,3.70
2018-12-11T08:44:01.004Z,3.50
2018-12-11T08:46:35.466Z,3.17
2018-12-11T08:49:09.252Z,3.03
2018-12-11T08:51:43.507Z,3.80
2018-12-11T08:54:15.207Z,3.37
2018-12-11T08:56:47.523Z,2.77
2018-12-11T08:59:19.654Z,3.13
2018-12-11T09:01:54.443Z,2.40
2018-12-11T09:04:26.224Z,2.60
2018-12-11T09:06:58.349Z,2.70
2018-12-11T09:09:30.503Z,2.70
2018-12-11T09:12:02.860Z,2.73
2018-12-11T09:14:35.029Z,2.97
2018-12-11T09:17:10.233Z,2.73
2018-12-11T09:19:42.133Z,3.37
2018-12-11T09:22:14.184Z,3.07
2018-12-11T09:24:46.444Z,4.60
2018-12-11T09:27:18.584Z,2.50
2018-12-11T09:29:50.163Z,3.53
2018-12-11T09:32:22.607Z,3.80
2018-12-11T09:34:54.363Z,2.53
2018-12-11T09:37:26.372Z,3.37
2018-12-11T09:39:59.430Z,3.43
2018-12-11T09:42:33.043Z,3.37
2018-12-11T09:45:08.265Z,2.70
2018-12-11T09:47:40.270Z,4.83
2018-12-11T09:50:12.355Z,4.60
2018-12-11T09:52:46.576Z,3.60
2018-12-11T09:55:19.117Z,4.53
2018-12-11T09:57:51.175Z,3.03
2018-12-11T10:00:27.197Z,2.70
2018-12-11T10:02:57.614Z,3.07
2018-12-11T10:05:30.737Z,2.90
2018-12-11T10:08:03.900Z,3.03
2018-12-11T10:10:35.560Z,3.23
2018-12-11T10:13:07.474Z,2.93
2018-12-11T10:15:41.145Z,2.60
2018-12-11T10:18:13.303Z,3.50
2018-12-11T10:20:45.560Z,3.90
2018-12-11T10:23:20.313Z,3.10
2018-12-11T10:25:52.065Z,6.47
2018-12-11T10:28:22.618Z,3.47
2018-12-11T10:30:54.996Z,3.13
2018-12-11T10:33:27.475Z,2.63
2018-12-11T10:35:57.752Z,3.17
2018-12-11T10:38:29.913Z,2.70
2018-12-11T10:41:02.455Z,2.60
2018-12-11T10:43:34.521Z,2.97
2018-12-11T10:46:07.223Z,3.83
2018-12-11T10:48:39.215Z,2.50
2018-12-11T10:51:11.404Z,3.67
2018-12-11T10:53:45.924Z,3.10
2018-12-11T10:56:18.511Z,3.77
2018-12-11T10:58:51.311Z,3.80
2018-12-11T11:01:27.691Z,3.10
2018-12-11T11:03:59.683Z,3.03
2018-12-11T11:06:31.681Z,4.17
2018-12-11T11:09:05.645Z,3.53
2018-12-11T11:11:38.045Z,10.50
2018-12-11T11:14:10.521Z,4.30
2018-12-11T11:16:43.951Z,3.80
2018-12-11T11:19:18.305Z,4.37
2018-12-11T11:21:49.879Z,3.07
2018-12-11T11:24:24.249Z,3.60
2018-12-11T11:26:56.584Z,4.10
2018-12-11T11:29:28.913Z,4.33
2018-12-11T11:32:01.625Z,3.13
2018-12-11T11:34:38.549Z,3.67
2018-12-11T11:37:10.576Z,3.33
2018-12-11T11:42:37.125Z,3.73
2018-12-11T11:45:10.492Z,3.40
2018-12-11T11:47:43.556Z,3.53
2018-12-11T11:50:18.324Z,5.07
2018-12-11T11:52:50.310Z,3.27
2018-12-11T11:55:22.324Z,4.30
2018-12-11T11:57:54.901Z,4.00
2018-12-11T12:00:28.019Z,3.57
2018-12-11T12:03:00.336Z,3.70
2018-12-11T12:10:36.193Z,4.00
2018-12-11T12:13:08.723Z,4.40
2018-12-11T12:15:40.836Z,3.70
2018-12-11T12:18:13.567Z,3.70
2018-12-11T12:20:45.276Z,3.63
2018-12-11T12:23:16.839Z,2.90
2018-12-11T12:25:49.259Z,3.60
2018-12-11T12:28:21.421Z,3.13
2018-12-11T12:30:54.921Z,3.63
2018-12-11T12:33:27.261Z,4.17
2018-12-11T12:35:57.269Z,3.87
2018-12-11T12:38:36.880Z,4.97
2018-12-11T12:41:18.768Z,3.43
2018-12-11T12:43:52.250Z,4.30
2018-12-11T12:46:22.385Z,3.70
2018-12-11T12:48:54.512Z,3.17
2018-12-11T12:51:26.809Z,3.03
2018-12-11T12:53:59.647Z,3.27
2018-12-11T12:59:25.252Z,3.27
2018-12-11T13:01:57.522Z,3.70
2018-12-11T13:04:29.850Z,3.07
2018-12-11T13:07:02.264Z,2.50
2018-12-11T13:12:05.353Z,3.73
2018-12-11T13:14:37.563Z,3.00
2018-12-11T13:17:11.796Z,2.40
2018-12-11T13:19:43.848Z,3.90
2018-12-11T13:22:16.100Z,2.73
2018-12-11T13:24:48.401Z,4.27
2018-12-11T13:27:20.629Z,2.73
2018-12-11T13:29:53.235Z,3.60
2018-12-11T13:32:24.987Z,3.47
2018-12-11T13:34:57.509Z,3.73
2018-12-11T13:37:29.967Z,3.87
2018-12-11T13:40:04.550Z,4.00
2018-12-11T13:42:37.075Z,3.00
2018-12-11T13:45:09.885Z,4.47
2018-12-11T13:47:44.295Z,4.50
2018-12-11T13:50:16.927Z,3.47
2018-12-11T13:52:49.013Z,3.93
2018-12-11T13:55:21.677Z,3.50
2018-12-11T13:57:53.711Z,4.50
2018-12-11T14:00:25.975Z,4.83
2018-12-11T14:02:58.211Z,4.23
2018-12-11T14:05:30.453Z,3.97
2018-12-11T14:08:02.574Z,3.27
2018-12-11T14:10:34.830Z,3.20
2018-12-11T14:16:01.401Z,4.90
2018-12-11T14:18:37.385Z,3.57
2018-12-11T14:21:07.717Z,3.83
2018-12-11T14:23:44.640Z,3.27
2018-12-11T14:26:16.300Z,4.40
2018-12-11T14:28:48.696Z,4.70
2018-12-11T14:31:26.719Z,3.43
2018-12-11T14:33:59.033Z,4.37
2018-12-11T14:36:31.136Z,3.30
2018-12-11T14:39:04.738Z,4.07
2018-12-11T14:41:36.605Z,3.57
2018-12-11T14:44:08.978Z,4.57
2018-12-11T14:46:41.318Z,2.87
2018-12-11T14:49:13.232Z,3.67
2018-12-11T14:51:45.461Z,2.50
2018-12-11T14:54:17.633Z,2.93
2018-12-11T14:56:49.905Z,3.63
2018-12-11T14:59:22.333Z,4.43
2018-12-11T15:01:52.632Z,3.57
2018-12-11T15:04:25.138Z,3.23
2018-12-11T15:06:57.541Z,3.50
2018-12-11T15:09:34.813Z,3.73
2018-12-11T15:17:10.988Z,2.97
2018-12-11T15:19:42.956Z,2.87
2018-12-11T15:22:13.087Z,2.47
2018-12-11T15:24:45.117Z,2.63
2018-12-11T15:27:17.396Z,3.43
2018-12-11T15:29:47.335Z,2.80
2018-12-11T15:32:19.786Z,3.03
2018-12-11T15:34:51.894Z,3.83
2018-12-11T15:37:24.179Z,3.20
2018-12-11T15:39:56.481Z,3.90
2018-12-11T15:42:26.621Z,2.93
2018-12-11T15:44:57.538Z,3.40
2018-12-11T15:47:29.513Z,2.70
2018-12-11T15:50:01.658Z,3.90
2018-12-11T15:52:34.092Z,3.53
2018-12-11T15:55:06.475Z,3.83
2018-12-11T15:57:38.525Z,3.90
2018-12-11T16:00:11.844Z,2.90
2018-12-11T16:02:44.310Z,4.33
2018-12-11T16:05:16.332Z,2.87
2018-12-11T16:07:48.369Z,3.77
2018-12-11T16:10:22.920Z,3.00
2018-12-11T16:12:54.688Z,2.73
2018-12-11T16:15:26.627Z,3.23
2018-12-11T16:18:00.981Z,3.30
2018-12-11T16:20:32.661Z,4.20
2018-12-11T16:23:07.225Z,3.20
2018-12-11T16:25:38.912Z,4.13
2018-12-11T16:28:11.017Z,2.77
2018-12-11T16:30:41.534Z,2.47
2018-12-11T16:33:13.864Z,3.60
2018-12-11T16:35:45.905Z,3.00
2018-12-11T16:38:18.203Z,3.60
2018-12-11T16:40:50.412Z,4.10
2018-12-11T16:43:23.076Z,3.53
2018-12-11T16:45:55.036Z,2.93
2018-12-11T16:48:27.275Z,3.77
2018-12-11T16:50:59.582Z,3.83
2018-12-11T16:53:32.049Z,2.97
2018-12-11T16:56:04.274Z,3.23
2018-12-11T16:58:36.108Z,2.77
2018-12-11T17:01:10.535Z,2.63
2018-12-11T17:03:42.361Z,3.00
2018-12-11T17:06:15.109Z,2.50
2018-12-11T17:08:47.302Z,2.43
2018-12-11T17:11:18.847Z,3.10
2018-12-11T17:13:53.006Z,3.10
2018-12-11T17:16:27.797Z,2.50
2018-12-11T17:18:59.940Z,3.53
2018-12-11T17:21:31.776Z,3.43
2018-12-11T17:24:04.181Z,3.37
2018-12-11T17:26:38.749Z,3.23
2018-12-11T17:29:10.723Z,3.87
2018-12-11T17:31:42.471Z,3.17
2018-12-11T17:34:14.423Z,4.13
2018-12-11T17:36:46.501Z,3.40
2018-12-11T17:39:18.696Z,2.10
2018-12-11T17:41:51.137Z,2.83
2018-12-11T17:44:25.396Z,2.77
2018-12-11T17:46:57.031Z,3.23
2018-12-11T17:49:29.743Z,3.93
2018-12-11T17:52:01.313Z,2.83
2018-12-11T17:54:31.719Z,3.30
2018-12-11T17:57:04.203Z,3.87
2018-12-11T17:59:36.193Z,3.53
2018-12-11T18:02:10.324Z,3.00
2018-12-11T18:04:40.607Z,2.83
2018-12-11T18:07:15.023Z,3.50
2018-12-11T18:09:46.819Z,4.03
2018-12-11T18:12:17.319Z,3.17
2018-12-11T18:14:51.624Z,6.97
2018-12-11T18:17:26.185Z,4.10
2018-12-11T18:19:59.805Z,3.83
2018-12-11T18:22:32.436Z,4.80
2018-12-11T18:25:05.403Z,6.90
2018-12-11T18:30:10.111Z,3.97
2018-12-11T18:32:42.374Z,3.87
2018-12-11T18:35:18.322Z,3.67
2018-12-11T18:37:51.926Z,3.67
2018-12-11T18:40:24.428Z,3.40
2018-12-11T18:42:56.676Z,4.57
2018-12-11T18:45:28.778Z,3.20
2018-12-11T18:48:00.661Z,4.00
2018-12-11T18:50:31.013Z,3.90
2018-12-11T18:53:03.003Z,3.93
2018-12-11T18:55:35.359Z,4.90
2018-12-11T18:58:07.546Z,3.90
2018-12-11T19:00:39.845Z,4.60
2018-12-11T19:03:12.264Z,4.13
2018-12-11T19:05:44.297Z,4.00
2018-12-11T19:08:18.403Z,7.00
2018-12-11T19:10:50.984Z,3.97
2018-12-11T19:13:23.701Z,4.30
2018-12-11T19:15:56.092Z,3.87
2018-12-11T19:18:28.197Z,4.80
2018-12-11T19:21:10.858Z,4.07
2018-12-11T19:23:59.878Z,4.13
2018-12-11T19:26:31.784Z,3.60
2018-12-11T19:29:03.727Z,3.37
2018-12-11T19:31:38.094Z,3.10
2018-12-11T19:34:09.823Z,3.63
2018-12-11T19:36:42.622Z,4.03
2018-12-11T19:39:14.939Z,3.03
2018-12-11T19:41:47.531Z,3.10
2018-12-11T19:44:21.558Z,5.50
2018-12-11T19:46:54.088Z,3.97
2018-12-11T19:49:26.430Z,3.20
2018-12-11T19:51:58.831Z,3.80
2018-12-11T19:54:30.581Z,4.90
2018-12-11T19:57:03.994Z,3.43
2018-12-11T19:59:37.217Z,4.17
2018-12-11T20:02:07.332Z,4.63
2018-12-11T20:04:43.150Z,5.20
2018-12-11T20:07:18.274Z,4.80
2018-12-11T20:09:55.860Z,3.83
2018-12-11T20:12:27.866Z,4.33
2018-12-11T20:15:04.668Z,3.23
2018-12-11T20:17:34.826Z,4.63
2018-12-11T20:20:07.612Z,6.17
2018-12-11T20:22:39.881Z,7.03
2018-12-11T20:25:11.867Z,8.20
2018-12-11T20:27:44.751Z,6.77
2018-12-11T20:32:48.796Z,4.80
2018-12-11T20:35:20.796Z,6.50
2018-12-11T20:38:00.297Z,5.70
2018-12-11T20:40:32.743Z,4.93
2018-12-11T20:43:04.699Z,5.53
2018-12-11T20:45:37.091Z,6.87
2018-12-11T20:48:08.961Z,6.37
2018-12-11T20:50:41.573Z,5.43
2018-12-11T20:53:13.449Z,6.10
2018-12-11T20:55:45.887Z,3.97
2018-12-11T20:58:20.355Z,5.17
2018-12-11T21:00:52.158Z,6.00
2018-12-11T21:03:24.403Z,6.00
2018-12-11T21:05:56.801Z,5.27
2018-12-11T21:08:29.810Z,4.63
2018-12-11T21:11:01.957Z,4.97
2018-12-11T21:13:34.588Z,4.97
2018-12-11T21:16:11.007Z,4.97
2018-12-11T21:18:40.753Z,4.57
2018-12-11T21:21:12.772Z,4.53
2018-12-11T21:23:46.449Z,4.90
2018-12-11T21:26:19.691Z,5.03
2018-12-11T21:28:51.369Z,7.17
2018-12-11T21:31:26.250Z,5.23
2018-12-11T21:33:59.173Z,7.80
2018-12-11T21:36:33.914Z,5.33
2018-12-11T21:39:09.740Z,4.37
2018-12-11T21:41:42.049Z,4.07
2018-12-11T21:44:14.354Z,6.00
2018-12-11T21:46:46.553Z,4.87
2018-12-11T21:49:19.220Z,8.30
2018-12-11T21:51:51.660Z,6.87
2018-12-11T21:57:18.154Z,4.83
2018-12-11T21:59:50.124Z,8.97
2018-12-11T22:02:22.922Z,8.60
2018-12-11T22:04:53.585Z,8.03
2018-12-11T22:07:25.810Z,7.03
2018-12-11T22:09:58.203Z,9.03
2018-12-11T22:12:30.788Z,8.07
2018-12-11T22:15:05.169Z,9.13
2018-12-11T22:17:37.874Z,7.27
2018-12-11T22:20:17.090Z,6.10
2018-12-11T22:22:50.458Z,12.07
2018-12-11T22:25:22.731Z,10.07
2018-12-11T22:27:55.095Z,10.23
2018-12-11T22:30:27.164Z,7.63
2018-12-11T22:32:59.662Z,6.00
2018-12-11T22:35:32.247Z,8.90
2018-12-11T22:38:05.506Z,7.97
2018-12-11T22:40:38.346Z,10.83
2018-12-11T22:43:11.075Z,11.97
2018-12-11T22:45:43.136Z,10.30
2018-12-11T22:48:14.974Z,12.70
2018-12-11T22:50:50.051Z,15.40
2018-12-11T22:53:20.335Z,9.20
2018-12-11T22:55:52.525Z,13.93
2018-12-11T22:58:24.835Z,7.80
2018-12-11T23:00:57.608Z,8.47
2018-12-11T23:03:29.473Z,9.27
2018-12-11T23:06:01.696Z,13.57
2018-12-11T23:08:33.876Z,10.87
2018-12-11T23:14:00.164Z,9.93
2018-12-11T23:16:32.315Z,7.40
2018-12-11T23:19:04.680Z,8.30
2018-12-11T23:21:36.780Z,16.37
2018-12-11T23:24:09.213Z,8.07
2018-12-11T23:26:41.408Z,8.23
2018-12-11T23:29:13.405Z,13.53
2018-12-11T23:31:47.840Z,8.70
2018-12-11T23:36:54.673Z,8.50
2018-12-11T23:39:29.222Z,10.40
2018-12-11T23:42:03.077Z,16.87
2018-12-11T23:44:37.911Z,11.50
2018-12-11T23:47:11.553Z,14.43
2018-12-11T23:49:44.705Z,13.20
2018-12-11T23:52:17.284Z,8.73
2018-12-11T23:54:50.667Z,14.13
2018-12-11T23:57:20.876Z,9.80
2018-12-11T23:59:53.709Z,7.83
